Time;durP1;ratioP1;P1;durP2;ratioP2;P2;SDS_P1;SDS_P2;PMS_P1;PMS_P2;Temp;Humidity;BMP_temperature;BMP_pressure;BME280_temperature;BME280_humidity;BME280_pressure;Samples;Min_cycle;Max_cycle;Signal;HPM_P1;HPM_P2
2023/09/18 00:02:11;;;;;;;3.83;3.50;;;20.80;99.90;;;;;;4976215;28;20276;-80
2023/09/18 00:04:38;;;;;;;5.57;3.67;;;20.80;99.90;;;;;;4975324;28;20202;-80
2023/09/18 00:07:05;;;;;;;7.30;6.70;;;20.90;99.90;;;;;;4977244;28;20213;-80
2023/09/18 00:09:33;;;;;;;7.60;7.00;;;20.90;99.90;;;;;;4977499;28;20214;-80
2023/09/18 00:12:00;;;;;;;5.03;3.60;;;20.90;99.90;;;;;;4977403;28;20189;-79
2023/09/18 00:14:27;;;;;;;4.93;4.10;;;21.00;99.90;;;;;;4976708;28;20225;-80
2023/09/18 00:16:57;;;;;;;4.40;3.27;;;21.00;99.90;;;;;;4976884;28;20788;-80
2023/09/18 00:19:24;;;;;;;5.03;3.63;;;21.00;99.90;;;;;;4975639;28;20233;-80
2023/09/18 00:21:51;;;;;;;6.57;4.27;;;21.00;99.90;;;;;;4976130;28;20236;-80
2023/09/18 00:24:18;;;;;;;5.97;4.10;;;21.10;99.90;;;;;;4975796;28;20209;-80
2023/09/18 00:26:47;;;;;;;6.47;4.50;;;21.10;99.90;;;;;;4977579;28;20242;-80
2023/09/18 00:29:14;;;;;;;6.30;3.87;;;21.00;99.90;;;;;;4981048;28;20221;-80
2023/09/18 00:31:41;;;;;;;5.53;3.70;;;20.90;99.90;;;;;;4977018;28;20209;-80
2023/09/18 00:34:08;;;;;;;4.17;3.50;;;20.80;99.90;;;;;;4978587;28;20225;-80
2023/09/18 00:36:35;;;;;;;4.07;3.67;;;20.70;99.90;;;;;;4975641;28;20202;-80
2023/09/18 00:39:01;;;;;;;6.03;3.87;;;20.50;99.90;;;;;;4976076;28;20281;-80
2023/09/18 00:41:28;;;;;;;5.77;5.27;;;20.30;99.90;;;;;;4976306;28;20217;-80
2023/09/18 00:43:56;;;;;;;6.80;6.20;;;20.20;99.90;;;;;;4975773;28;20202;-80
2023/09/18 00:46:23;;;;;;;4.47;4.07;;;20.00;99.90;;;;;;4976078;28;20269;-80
2023/09/18 00:48:51;;;;;;;4.87;3.93;;;19.90;99.90;;;;;;4974926;28;20269;-80
2023/09/18 00:51:18;;;;;;;4.90;4.50;;;19.90;99.90;;;;;;4976503;28;20201;-79
2023/09/18 00:53:48;;;;;;;3.57;3.27;;;19.80;99.90;;;;;;4975177;28;20202;-79
2023/09/18 00:56:16;;;;;;;7.30;6.70;;;19.80;99.90;;;;;;4975437;28;20198;-80
2023/09/18 00:58:44;;;;;;;4.53;3.97;;;19.90;99.90;;;;;;4974962;28;20308;-79
2023/09/18 01:01:16;;;;;;;3.70;3.33;;;19.90;99.90;;;;;;4974766;28;20205;-79
2023/09/18 01:03:43;;;;;;;3.50;3.20;;;20.00;99.90;;;;;;4983004;28;20193;-79
2023/09/18 01:06:09;;;;;;;3.70;3.10;;;20.10;99.90;;;;;;4976105;28;20252;-79
2023/09/18 01:08:36;;;;;;;4.43;3.60;;;20.10;99.90;;;;;;4974671;28;20672;-79
2023/09/18 01:11:11;;;;;;;5.63;3.30;;;20.10;99.90;;;;;;4975907;28;20786;-79
2023/09/18 01:13:43;;;;;;;3.87;3.33;;;20.10;99.90;;;;;;4974582;28;20288;-80
2023/09/18 01:16:15;;;;;;;3.90;3.20;;;20.00;99.90;;;;;;4974611;28;20691;-79
2023/09/18 01:18:50;;;;;;;6.33;5.83;;;19.90;99.90;;;;;;4975789;28;20210;-78
2023/09/18 01:21:16;;;;;;;6.77;6.27;;;19.90;99.90;;;;;;4975426;28;20668;-80
2023/09/18 01:23:45;;;;;;;8.03;7.23;;;19.80;99.90;;;;;;4975617;28;20213;-78
2023/09/18 01:26:11;;;;;;;7.07;6.53;;;19.80;99.90;;;;;;4974417;28;20194;-79
2023/09/18 01:28:40;;;;;;;7.90;7.20;;;19.60;99.90;;;;;;4983669;28;20189;-80
2023/09/18 01:31:07;;;;;;;7.40;6.90;;;19.60;99.90;;;;;;4974623;28;20249;-79
2023/09/18 01:33:37;;;;;;;7.47;6.97;;;19.60;99.90;;;;;;4975248;28;20220;-79
2023/09/18 01:36:05;;;;;;;8.10;7.40;;;19.50;99.90;;;;;;4982508;28;20264;-80
2023/09/18 01:38:33;;;;;;;7.70;7.10;;;19.50;99.90;;;;;;4973424;28;20312;-79
2023/09/18 01:41:02;;;;;;;9.60;8.73;;;19.50;99.90;;;;;;4975276;28;20226;-79
2023/09/18 01:43:30;;;;;;;7.93;7.23;;;19.50;99.90;;;;;;4974093;28;20584;-80
2023/09/18 01:45:57;;;;;;;7.77;7.17;;;19.50;99.90;;;;;;4973749;28;20213;-79
2023/09/18 01:48:24;;;;;;;9.47;8.67;;;19.50;99.90;;;;;;4986947;28;20700;-80
2023/09/18 01:50:51;;;;;;;7.57;6.97;;;19.50;99.90;;;;;;4986944;28;20767;-79
2023/09/18 01:53:18;;;;;;;7.93;7.23;;;19.50;99.90;;;;;;4979669;28;20204;-79
2023/09/18 01:55:45;;;;;;;7.37;6.87;;;19.50;99.90;;;;;;4982641;28;20219;-80
2023/09/18 01:58:14;;;;;;;7.30;6.80;;;19.50;99.90;;;;;;4980146;28;20221;-78
2023/09/18 02:00:41;;;;;;;7.70;7.00;;;19.50;99.90;;;;;;4973808;28;20696;-80
2023/09/18 02:03:07;;;;;;;7.53;6.90;;;19.40;99.90;;;;;;4974907;28;20219;-79
2023/09/18 02:05:36;;;;;;;8.00;7.40;;;19.30;99.90;;;;;;4972362;28;20212;-79
2023/09/18 02:08:03;;;;;;;8.17;7.37;;;19.30;99.90;;;;;;4973607;28;20690;-79
2023/09/18 02:10:30;;;;;;;8.67;7.87;;;19.20;99.90;;;;;;4974539;28;20216;-79
2023/09/18 02:12:57;;;;;;;7.60;7.00;;;19.20;99.90;;;;;;4974707;28;20204;-79
2023/09/18 02:15:25;;;;;;;7.73;7.13;;;19.10;99.90;;;;;;4967818;28;20680;-78
2023/09/18 02:17:53;;;;;;;8.30;7.60;;;19.10;99.90;;;;;;4974324;28;20287;-79
2023/09/18 02:20:20;;;;;;;8.17;7.57;;;19.10;99.90;;;;;;4972828;28;20229;-79
2023/09/18 02:22:48;;;;;;;8.27;7.53;;;19.10;99.90;;;;;;4974518;28;20739;-79
2023/09/18 02:25:15;;;;;;;9.70;7.77;;;19.10;99.90;;;;;;4973447;28;20201;-79
2023/09/18 02:27:42;;;;;;;8.63;7.93;;;19.10;99.90;;;;;;4973171;28;20198;-79
2023/09/18 02:30:10;;;;;;;8.50;7.90;;;19.10;99.90;;;;;;4982184;28;20630;-79
2023/09/18 02:32:38;;;;;;;7.60;7.00;;;19.20;99.90;;;;;;4973577;28;20197;-79
2023/09/18 02:35:07;;;;;;;7.50;6.93;;;19.10;99.90;;;;;;4980431;28;20209;-79
2023/09/18 02:37:33;;;;;;;7.87;7.27;;;19.20;99.90;;;;;;4974735;28;20220;-78
2023/09/18 02:40:00;;;;;;;7.70;7.20;;;19.10;99.90;;;;;;4973166;28;20631;-79
2023/09/18 02:42:27;;;;;;;7.50;6.90;;;19.20;99.90;;;;;;4973320;28;20213;-78
2023/09/18 02:44:54;;;;;;;8.87;7.40;;;19.10;99.90;;;;;;4972071;28;20215;-77
2023/09/18 02:47:21;;;;;;;8.47;7.77;;;19.20;99.90;;;;;;4972769;28;20201;-79
2023/09/18 02:49:49;;;;;;;9.37;8.60;;;19.10;99.90;;;;;;4972092;28;20225;-79
2023/09/18 02:52:16;;;;;;;8.30;7.70;;;19.10;99.90;;;;;;4972206;28;20565;-82
2023/09/18 02:54:43;;;;;;;8.37;7.67;;;19.00;99.90;;;;;;4981330;28;20199;-83
2023/09/18 02:57:09;;;;;;;8.50;7.80;;;19.00;99.90;;;;;;4960864;28;20201;-81
2023/09/18 02:59:36;;;;;;;8.47;7.87;;;18.90;99.90;;;;;;4969665;28;20519;-81
2023/09/18 03:02:03;;;;;;;8.10;7.40;;;18.90;99.90;;;;;;4972922;28;20247;-81
2023/09/18 03:04:30;;;;;;;8.13;7.43;;;18.90;99.90;;;;;;4964306;28;20213;-81
2023/09/18 03:06:59;;;;;;;8.47;7.60;;;18.90;99.90;;;;;;4968695;28;20203;-81
2023/09/18 03:09:26;;;;;;;8.30;7.60;;;18.80;99.90;;;;;;4972221;28;20220;-81
2023/09/18 03:12:04;;;;;;;8.97;8.27;;;18.70;99.90;;;;;;4973431;28;20238;-85
2023/09/18 03:14:52;;;;;;;9.20;8.50;;;18.60;99.90;;;;;;4972883;28;20307;-80
2023/09/18 03:17:34;;;;;;;8.70;8.10;;;18.60;99.90;;;;;;4977944;28;20726;-80
2023/09/18 03:20:01;;;;;;;8.27;7.63;;;18.50;99.90;;;;;;4981393;28;20223;-82
2023/09/18 03:22:29;;;;;;;8.97;8.20;;;18.50;99.90;;;;;;4972116;28;20212;-80
2023/09/18 03:24:56;;;;;;;8.77;8.00;;;18.50;99.90;;;;;;4972778;28;20228;-84
2023/09/18 03:27:28;;;;;;;8.80;8.10;;;18.40;99.90;;;;;;4979068;28;20718;-81
2023/09/18 03:30:23;;;;;;;9.50;8.70;;;18.40;99.90;;;;;;4976801;28;20270;-78
2023/09/18 03:32:51;;;;;;;9.00;8.30;;;18.40;99.90;;;;;;4970780;28;20212;-78
2023/09/18 03:35:19;;;;;;;8.70;8.00;;;18.40;99.90;;;;;;4973974;28;20202;-79
2023/09/18 03:37:51;;;;;;;8.70;8.10;;;18.30;99.90;;;;;;4974247;28;20324;-77
2023/09/18 03:40:19;;;;;;;8.17;7.60;;;18.40;99.90;;;;;;4981761;28;20267;-78
2023/09/18 03:42:47;;;;;;;8.53;7.83;;;18.30;99.90;;;;;;4975063;28;20207;-76
2023/09/18 03:45:14;;;;;;;9.00;8.30;;;18.40;99.90;;;;;;4975416;28;20201;-77
2023/09/18 03:47:42;;;;;;;9.17;8.40;;;18.40;99.90;;;;;;4975641;28;20205;-77
2023/09/18 03:50:10;;;;;;;8.33;7.73;;;18.40;99.90;;;;;;4974324;28;20222;-77
2023/09/18 03:52:38;;;;;;;8.90;8.10;;;18.50;99.90;;;;;;4975138;28;20210;-77
2023/09/18 03:55:07;;;;;;;8.63;8.03;;;18.50;99.90;;;;;;4974320;28;20228;-78
2023/09/18 03:57:35;;;;;;;8.80;8.10;;;18.60;99.90;;;;;;4975165;28;20694;-77
2023/09/18 04:00:02;;;;;;;8.60;7.93;;;18.60;99.90;;;;;;4974247;28;20226;-76
2023/09/18 04:02:38;;;;;;;9.07;8.37;;;18.60;99.90;;;;;;4979087;28;20205;-77
2023/09/18 04:05:07;;;;;;;8.60;8.00;;;18.60;99.90;;;;;;4980590;28;20637;-79
2023/09/18 04:07:34;;;;;;;7.93;7.33;;;18.60;99.90;;;;;;4977428;28;20626;-77
2023/09/18 04:10:02;;;;;;;8.27;7.63;;;18.60;99.90;;;;;;4981495;28;20231;-77
2023/09/18 04:12:30;;;;;;;8.30;7.80;;;18.60;99.90;;;;;;4976336;28;20207;-77
2023/09/18 04:14:57;;;;;;;7.87;7.27;;;18.70;99.90;;;;;;4975466;28;20689;-76
2023/09/18 04:17:24;;;;;;;8.27;7.57;;;18.70;99.90;;;;;;4976632;28;20199;-76
2023/09/18 04:19:52;;;;;;;8.17;7.57;;;18.70;99.90;;;;;;4976844;28;20223;-77
2023/09/18 04:22:19;;;;;;;8.57;7.90;;;18.70;99.90;;;;;;4969444;28;20188;-77
2023/09/18 04:24:45;;;;;;;8.23;7.63;;;18.70;99.90;;;;;;4976334;28;20685;-77
2023/09/18 04:27:12;;;;;;;8.60;8.00;;;18.70;99.90;;;;;;4978914;28;20215;-78
2023/09/18 04:29:40;;;;;;;8.43;7.83;;;18.80;99.90;;;;;;4980880;28;20728;-78
2023/09/18 04:32:07;;;;;;;9.07;8.37;;;18.80;99.90;;;;;;4978103;28;20280;-78
2023/09/18 04:34:35;;;;;;;9.30;8.50;;;18.90;99.90;;;;;;4976308;28;20203;-78
2023/09/18 04:37:03;;;;;;;9.43;8.67;;;18.90;99.90;;;;;;4977347;28;20252;-77
2023/09/18 04:39:33;;;;;;;9.00;8.30;;;18.90;99.90;;;;;;4983902;28;20602;-78
2023/09/18 04:42:04;;;;;;;8.80;8.10;;;18.90;99.90;;;;;;4975807;28;20837;-77
2023/09/18 04:44:31;;;;;;;9.90;9.13;;;19.00;99.90;;;;;;4976576;28;20686;-78
2023/09/18 04:47:00;;;;;;;8.87;8.27;;;19.00;99.90;;;;;;4975655;28;20223;-77
2023/09/18 04:49:27;;;;;;;8.43;7.73;;;19.00;99.90;;;;;;4975313;28;20252;-77
2023/09/18 04:51:55;;;;;;;7.80;7.20;;;19.00;99.90;;;;;;4977302;28;20200;-77
2023/09/18 04:54:23;;;;;;;6.70;6.30;;;19.00;99.90;;;;;;4968484;28;20196;-77
2023/09/18 04:56:50;;;;;;;9.50;8.80;;;19.00;99.90;;;;;;4969525;28;20209;-78
2023/09/18 04:59:16;;;;;;;8.53;7.73;;;19.00;99.90;;;;;;4983371;28;20228;-78
2023/09/18 05:01:44;;;;;;;10.03;9.23;;;19.00;99.90;;;;;;4975291;28;20200;-77
2023/09/18 05:04:14;;;;;;;9.37;8.67;;;19.00;99.90;;;;;;4979210;28;20301;-77
2023/09/18 05:06:41;;;;;;;10.03;9.23;;;19.00;99.90;;;;;;4975495;28;20209;-78
2023/09/18 05:09:08;;;;;;;9.97;9.07;;;19.00;99.90;;;;;;4983875;28;20280;-79
2023/09/18 05:11:35;;;;;;;8.80;7.90;;;19.10;99.90;;;;;;4976481;28;20198;-78
2023/09/18 05:14:02;;;;;;;8.90;8.20;;;19.10;99.90;;;;;;4976718;28;20281;-78
2023/09/18 05:16:29;;;;;;;8.80;8.00;;;19.20;99.90;;;;;;4975588;28;20205;-78
2023/09/18 05:18:56;;;;;;;8.33;7.83;;;19.20;99.90;;;;;;4976673;28;20209;-79
2023/09/18 05:21:26;;;;;;;8.63;8.00;;;19.20;99.90;;;;;;4976930;28;20268;-77
2023/09/18 05:23:54;;;;;;;8.40;7.80;;;19.20;99.90;;;;;;4983908;28;20268;-78
2023/09/18 05:26:24;;;;;;;7.40;6.90;;;19.30;99.90;;;;;;4974586;28;20744;-77
2023/09/18 05:28:51;;;;;;;3.87;3.53;;;19.30;99.90;;;;;;4975061;28;20571;-78
2023/09/18 05:31:18;;;;;;;3.33;2.97;;;19.30;99.90;;;;;;4985343;28;20297;-79
2023/09/18 05:33:44;;;;;;;3.90;2.93;;;19.30;99.90;;;;;;4987561;28;20208;-78
2023/09/18 05:36:13;;;;;;;5.43;5.03;;;19.40;99.90;;;;;;4984287;28;20220;-78
2023/09/18 05:38:41;;;;;;;6.53;5.83;;;19.40;99.90;;;;;;4985790;28;20717;-76
2023/09/18 05:41:08;;;;;;;7.63;7.00;;;19.40;99.90;;;;;;4979282;28;20244;-79
2023/09/18 05:43:35;;;;;;;8.73;7.90;;;19.50;99.90;;;;;;4972504;28;20218;-79
2023/09/18 05:46:02;;;;;;;3.07;2.83;;;19.60;99.90;;;;;;4979745;28;20290;-78
2023/09/18 05:48:29;;;;;;;4.00;2.80;;;19.60;99.90;;;;;;4982319;28;20208;-79
2023/09/18 05:50:56;;;;;;;3.57;2.90;;;19.70;99.90;;;;;;4991870;28;20219;-79
2023/09/18 05:53:22;;;;;;;5.37;4.50;;;19.80;99.90;;;;;;4986626;28;20196;-78
2023/09/18 05:55:51;;;;;;;3.43;2.97;;;19.90;99.90;;;;;;4985011;28;20227;-77
2023/09/18 05:58:22;;;;;;;3.57;2.80;;;19.90;99.90;;;;;;4985961;28;20726;-78
2023/09/18 06:00:49;;;;;;;5.90;5.50;;;19.90;99.90;;;;;;4974300;28;20229;-79
2023/09/18 06:03:18;;;;;;;7.47;6.90;;;20.00;99.90;;;;;;4975185;28;20256;-79
2023/09/18 06:05:45;;;;;;;5.50;5.00;;;20.00;99.90;;;;;;4976210;28;20213;-81
2023/09/18 06:08:12;;;;;;;4.00;3.60;;;20.00;99.90;;;;;;4982653;28;20742;-83
2023/09/18 06:10:39;;;;;;;4.90;4.50;;;20.00;99.90;;;;;;4975613;28;20497;-86
2023/09/18 06:13:08;;;;;;;3.80;3.47;;;20.10;99.90;;;;;;4974386;28;20297;-83
2023/09/18 06:15:35;;;;;;;5.70;5.20;;;20.10;99.90;;;;;;4975650;28;20186;-83
2023/09/18 06:18:03;;;;;;;4.83;4.43;;;20.20;99.90;;;;;;4975686;28;20679;-82
2023/09/18 06:20:30;;;;;;;7.30;6.70;;;20.20;99.90;;;;;;4967387;28;20216;-82
2023/09/18 06:22:56;;;;;;;3.63;3.13;;;20.20;99.90;;;;;;4975680;28;20221;-83
2023/09/18 06:25:24;;;;;;;3.03;2.50;;;20.20;99.90;;;;;;4973892;28;20206;-78
2023/09/18 06:27:51;;;;;;;3.00;2.70;;;20.20;99.90;;;;;;4976917;28;20198;-78
2023/09/18 06:30:19;;;;;;;4.80;2.70;;;20.20;99.90;;;;;;4976374;28;20225;-79
2023/09/18 06:32:46;;;;;;;3.43;3.00;;;20.10;99.90;;;;;;4975562;28;20694;-79
2023/09/18 06:35:13;;;;;;;4.40;2.77;;;20.10;99.90;;;;;;4975491;28;20201;-78
2023/09/18 06:37:39;;;;;;;3.83;2.90;;;20.10;99.90;;;;;;4973164;28;20333;-79
2023/09/18 06:40:08;;;;;;;5.13;2.90;;;20.10;99.90;;;;;;4982494;28;20229;-79
2023/09/18 06:42:34;;;;;;;4.77;3.87;;;20.10;99.90;;;;;;4981771;28;20687;-81
2023/09/18 06:45:02;;;;;;;8.33;7.67;;;20.10;99.90;;;;;;4974763;28;20221;-78
2023/09/18 06:47:30;;;;;;;7.90;7.20;;;20.10;99.90;;;;;;4976449;28;20198;-78
2023/09/18 06:49:57;;;;;;;7.17;6.57;;;20.20;99.90;;;;;;4977189;28;20209;-79
2023/09/18 06:52:25;;;;;;;7.07;6.10;;;20.20;99.90;;;;;;4976762;28;20205;-78
2023/09/18 06:54:52;;;;;;;4.37;3.30;;;20.30;99.90;;;;;;4976823;28;20197;-79
2023/09/18 06:57:20;;;;;;;5.53;3.70;;;20.30;99.90;;;;;;4976757;28;20704;-78
2023/09/18 06:59:48;;;;;;;7.10;4.07;;;20.30;99.90;;;;;;4976785;28;20682;-79
2023/09/18 07:02:15;;;;;;;6.10;3.40;;;20.30;99.90;;;;;;4974767;28;20558;-79
2023/09/18 07:04:45;;;;;;;7.47;3.13;;;20.40;99.90;;;;;;4976591;28;20280;-78
2023/09/18 07:07:13;;;;;;;6.13;3.13;;;20.40;99.90;;;;;;4976356;28;20571;-78
2023/09/18 07:09:41;;;;;;;3.90;3.07;;;20.50;99.90;;;;;;4985307;28;20236;-78
2023/09/18 07:12:09;;;;;;;7.67;3.10;;;20.60;99.90;;;;;;4975414;28;20210;-79
2023/09/18 07:14:35;;;;;;;6.13;3.27;;;20.50;99.90;;;;;;4973633;28;20654;-78
2023/09/18 07:17:02;;;;;;;4.53;3.47;;;20.60;99.90;;;;;;4976582;28;20673;-78
2023/09/18 07:19:29;;;;;;;5.17;3.80;;;20.70;99.90;;;;;;4975474;28;20231;-78
2023/09/18 07:21:57;;;;;;;8.50;7.73;;;20.80;99.90;;;;;;4975636;28;20260;-79
2023/09/18 07:24:25;;;;;;;4.17;3.10;;;20.80;99.90;;;;;;4974515;28;20248;-78
2023/09/18 07:26:52;;;;;;;8.00;7.00;;;20.90;99.90;;;;;;4975925;28;20685;-78
2023/09/18 07:29:19;;;;;;;7.93;6.70;;;20.90;99.90;;;;;;4983945;28;20214;-79
2023/09/18 07:31:47;;;;;;;6.03;2.73;;;21.00;99.90;;;;;;4982853;28;20667;-79
2023/09/18 07:34:16;;;;;;;10.67;7.07;;;21.00;99.90;;;;;;4983158;28;20292;-82
2023/09/18 07:36:43;;;;;;;9.93;9.07;;;21.00;99.90;;;;;;4975601;28;20233;-81
2023/09/18 07:39:12;;;;;;;8.60;7.90;;;21.00;99.90;;;;;;4977231;28;20704;-78
2023/09/18 07:41:39;;;;;;;8.17;7.57;;;21.00;99.90;;;;;;4970331;28;20281;-81
2023/09/18 07:44:06;;;;;;;9.47;7.77;;;21.00;99.90;;;;;;4976337;28;20202;-80
2023/09/18 07:46:33;;;;;;;9.90;7.30;;;21.20;99.90;;;;;;4977448;28;20680;-79
2023/09/18 07:49:00;;;;;;;9.73;7.50;;;21.20;99.90;;;;;;4975702;28;20198;-81
2023/09/18 07:51:27;;;;;;;8.10;7.30;;;21.40;99.90;;;;;;4976008;28;20210;-80
2023/09/18 07:53:53;;;;;;;8.93;7.50;;;21.50;99.90;;;;;;4979449;28;20234;-79
2023/09/18 07:56:21;;;;;;;7.07;2.80;;;21.60;99.90;;;;;;4976885;28;20202;-79
2023/09/18 07:58:48;;;;;;;8.60;4.73;;;21.80;99.90;;;;;;4976038;28;20256;-79
2023/09/18 08:01:16;;;;;;;7.83;7.10;;;21.90;99.90;;;;;;4976505;28;20217;-79
2023/09/18 08:03:43;;;;;;;10.77;7.60;;;22.10;99.90;;;;;;4976478;28;20272;-80
2023/09/18 08:06:11;;;;;;;9.20;7.23;;;22.20;99.90;;;;;;4977327;28;20209;-80
2023/09/18 08:08:39;;;;;;;5.23;2.60;;;22.30;99.90;;;;;;4976176;28;20201;-80
2023/09/18 08:11:09;;;;;;;7.87;6.77;;;22.30;99.90;;;;;;4979868;28;20214;-79
2023/09/18 08:13:37;;;;;;;5.00;2.90;;;22.30;99.90;;;;;;4978853;28;20202;-79
2023/09/18 08:16:07;;;;;;;8.10;3.00;;;22.20;99.90;;;;;;4979730;28;20579;-79
2023/09/18 08:18:34;;;;;;;5.40;2.60;;;22.00;99.90;;;;;;4977616;28;20210;-79
2023/09/18 08:21:01;;;;;;;3.97;2.60;;;22.00;99.90;;;;;;4978096;28;20253;-79
2023/09/18 08:23:28;;;;;;;5.90;4.07;;;21.80;99.90;;;;;;4978359;28;20276;-79
2023/09/18 08:25:57;;;;;;;6.10;4.90;;;21.80;99.90;;;;;;4975945;28;20252;-79
2023/09/18 08:28:24;;;;;;;4.97;2.33;;;21.70;99.90;;;;;;4977333;28;20657;-79
2023/09/18 08:30:52;;;;;;;4.70;2.40;;;21.60;99.90;;;;;;4975814;28;20243;-79
2023/09/18 08:33:19;;;;;;;4.60;4.00;;;21.40;99.90;;;;;;4977273;28;20208;-78
2023/09/18 08:35:46;;;;;;;8.33;3.20;;;21.20;99.90;;;;;;4975667;28;20194;-79
2023/09/18 08:38:14;;;;;;;5.73;2.87;;;20.90;99.90;;;;;;4976956;28;20553;-79
2023/09/18 08:40:42;;;;;;;6.60;5.93;;;20.50;99.90;;;;;;4980785;28;20217;-79
2023/09/18 08:43:12;;;;;;;2.80;2.60;;;20.20;99.90;;;;;;4982825;28;20210;-78
2023/09/18 08:45:44;;;;;;;7.23;6.57;;;20.00;99.90;;;;;;4977565;28;20202;-78
2023/09/18 08:48:12;;;;;;;4.73;2.53;;;19.80;99.90;;;;;;4974876;28;20205;-78
2023/09/18 08:50:40;;;;;;;3.23;2.33;;;19.70;99.90;;;;;;4979070;28;20214;-78
2023/09/18 08:53:07;;;;;;;3.70;2.50;;;19.60;99.90;;;;;;4978321;28;20673;-79
2023/09/18 08:55:35;;;;;;;7.87;7.27;;;19.50;99.90;;;;;;4977631;28;20256;-79
2023/09/18 08:58:02;;;;;;;7.57;6.90;;;19.50;99.90;;;;;;4977889;28;20210;-78
2023/09/18 09:00:29;;;;;;;8.27;7.70;;;19.40;99.90;;;;;;4978914;28;20685;-79
2023/09/18 09:02:56;;;;;;;8.07;7.40;;;19.40;99.90;;;;;;4983442;28;20201;-79
2023/09/18 09:05:25;;;;;;;4.40;4.00;;;19.30;99.90;;;;;;4982155;28;20217;-78
2023/09/18 09:07:52;;;;;;;3.47;2.30;;;19.30;99.90;;;;;;4979181;28;20206;-78
2023/09/18 09:10:22;;;;;;;3.37;2.40;;;19.40;99.90;;;;;;4978201;28;20233;-78
2023/09/18 09:12:53;;;;;;;2.50;2.30;;;19.40;99.90;;;;;;4969428;28;20204;-81
2023/09/18 09:15:20;;;;;;;2.57;2.33;;;19.50;99.90;;;;;;4975293;28;20673;-83
2023/09/18 09:17:47;;;;;;;4.27;2.70;;;19.60;99.90;;;;;;4981770;28;20206;-81
2023/09/18 09:20:18;;;;;;;3.50;2.50;;;19.50;99.90;;;;;;4977461;28;20719;-83
2023/09/18 09:22:50;;;;;;;2.53;2.33;;;19.50;99.90;;;;;;4985594;28;20292;-82
2023/09/18 09:25:25;;;;;;;4.10;2.40;;;19.60;99.90;;;;;;4975808;28;20640;-82
2023/09/18 09:27:53;;;;;;;3.60;2.33;;;19.70;99.90;;;;;;4973072;28;20237;-81
2023/09/18 09:30:21;;;;;;;2.90;2.40;;;19.80;99.90;;;;;;4983598;28;20591;-83
2023/09/18 09:32:52;;;;;;;2.23;2.10;;;19.80;99.90;;;;;;5003289;28;20226;-83
2023/09/18 09:35:26;;;;;;;2.37;2.23;;;19.80;99.90;;;;;;4978634;28;20645;-82
2023/09/18 09:37:57;;;;;;;2.30;2.10;;;19.70;99.90;;;;;;4981770;28;20201;-83
2023/09/18 09:40:25;;;;;;;2.70;2.40;;;19.70;99.90;;;;;;4981835;28;20226;-82
2023/09/18 09:42:53;;;;;;;3.77;2.30;;;19.60;99.90;;;;;;4981582;28;20198;-82
2023/09/18 09:45:21;;;;;;;4.83;2.23;;;19.50;99.90;;;;;;4981185;28;20208;-83
2023/09/18 09:47:48;;;;;;;2.30;2.10;;;19.60;99.90;;;;;;4989948;28;20698;-83
2023/09/18 09:50:18;;;;;;;2.50;2.30;;;19.50;99.90;;;;;;4981872;28;20579;-83
2023/09/18 09:52:48;;;;;;;2.13;2.00;;;19.60;99.90;;;;;;4991498;28;20258;-82
2023/09/18 09:55:28;;;;;;;2.60;2.40;;;19.50;99.90;;;;;;4963673;28;20211;-82
2023/09/18 09:58:00;;;;;;;2.80;2.03;;;19.50;99.90;;;;;;4970029;28;20664;-80
2023/09/18 10:00:32;;;;;;;2.33;2.17;;;19.60;99.90;;;;;;4985678;28;20205;-80
2023/09/18 10:03:01;;;;;;;2.23;2.13;;;19.70;99.90;;;;;;4995175;28;20268;-75
2023/09/18 10:05:33;;;;;;;2.60;2.40;;;19.80;99.90;;;;;;4985015;28;20219;-79
2023/09/18 10:08:02;;;;;;;2.60;2.40;;;19.80;99.90;;;;;;4983101;28;20197;-79
2023/09/18 10:10:33;;;;;;;3.20;2.20;;;19.90;99.90;;;;;;5002509;28;20309;-79
2023/09/18 10:13:10;;;;;;;2.60;2.40;;;20.00;99.90;;;;;;4988495;28;20572;-79
2023/09/18 10:15:39;;;;;;;2.27;2.10;;;20.00;99.90;;;;;;4979279;28;20284;-79
2023/09/18 10:18:11;;;;;;;2.43;2.00;;;19.90;99.90;;;;;;4983141;28;20202;-79
2023/09/18 10:20:42;;;;;;;2.73;2.13;;;19.90;99.90;;;;;;4981575;28;20226;-79
2023/09/18 10:23:29;;;;;;;2.47;2.27;;;19.80;99.90;;;;;;4985134;28;20707;-79
2023/09/18 10:26:05;;;;;;;2.10;2.00;;;19.70;99.90;;;;;;4994350;28;20554;-79
2023/09/18 10:28:34;;;;;;;2.80;2.00;;;19.60;99.90;;;;;;4993208;28;20227;-79
2023/09/18 10:31:03;;;;;;;3.80;2.50;;;19.70;99.90;;;;;;4990517;28;20224;-78
2023/09/18 10:33:31;;;;;;;3.23;2.47;;;19.60;99.90;;;;;;4995761;28;20201;-77
2023/09/18 10:36:00;;;;;;;2.93;2.40;;;19.70;99.90;;;;;;4989009;28;20209;-78
2023/09/18 10:38:29;;;;;;;2.63;2.33;;;19.70;99.90;;;;;;4980825;28;20580;-78
2023/09/18 10:40:59;;;;;;;2.57;2.30;;;19.60;99.90;;;;;;4988869;28;20252;-79
2023/09/18 10:43:26;;;;;;;2.80;2.20;;;19.60;99.90;;;;;;4976346;28;20300;-79
2023/09/18 10:45:53;;;;;;;2.23;2.03;;;19.50;99.90;;;;;;4984584;28;20227;-79
2023/09/18 10:48:22;;;;;;;5.70;5.20;;;19.50;99.90;;;;;;4984960;28;20198;-77
2023/09/18 10:50:49;;;;;;;4.73;4.37;;;19.50;99.90;;;;;;4985586;28;20224;-79
2023/09/18 10:53:16;;;;;;;5.40;4.97;;;19.50;99.90;;;;;;4990607;28;20202;-80
2023/09/18 10:55:44;;;;;;;5.80;5.40;;;19.40;99.90;;;;;;4985065;28;20271;-78
2023/09/18 10:58:12;;;;;;;3.80;3.60;;;19.40;99.90;;;;;;4980389;28;20711;-78
2023/09/18 11:00:43;;;;;;;4.60;4.20;;;19.40;99.90;;;;;;4974626;28;20213;-78
2023/09/18 11:03:17;;;;;;;3.60;3.30;;;19.30;99.90;;;;;;4978179;28;20728;-77
2023/09/18 11:05:45;;;;;;;4.10;3.80;;;19.30;99.90;;;;;;4980421;28;20630;-78
2023/09/18 11:08:33;;;;;;;3.50;3.30;;;19.30;99.90;;;;;;4972322;28;20732;-78
2023/09/18 11:11:09;;;;;;;4.33;3.97;;;19.30;99.90;;;;;;4974359;28;20772;-77
2023/09/18 11:13:40;;;;;;;4.17;3.63;;;19.30;99.90;;;;;;4986583;28;20713;-78
2023/09/18 11:16:20;;;;;;;4.83;4.30;;;19.30;99.90;;;;;;4993310;28;20256;-78
2023/09/18 11:18:55;;;;;;;5.37;4.97;;;19.20;99.90;;;;;;4990507;28;20201;-77
2023/09/18 11:21:26;;;;;;;5.10;4.70;;;19.20;99.90;;;;;;4985461;28;20215;-78
2023/09/18 11:24:00;;;;;;;5.43;5.00;;;19.30;99.90;;;;;;4990924;28;20216;-78
2023/09/18 11:26:30;;;;;;;3.97;3.67;;;19.30;99.90;;;;;;4994917;28;20263;-78
2023/09/18 11:29:00;;;;;;;4.07;3.73;;;19.40;99.90;;;;;;4982586;28;20308;-78
2023/09/18 11:31:43;;;;;;;4.67;3.90;;;19.40;99.90;;;;;;4982997;28;20689;-78
2023/09/18 11:34:20;;;;;;;4.30;3.90;;;19.50;99.90;;;;;;4981900;28;20664;-77
2023/09/18 11:36:47;;;;;;;4.53;4.13;;;19.50;99.90;;;;;;4989672;28;20213;-78
2023/09/18 11:39:33;;;;;;;4.40;4.00;;;19.50;99.90;;;;;;4995720;28;20212;-78
2023/09/18 11:42:08;;;;;;;4.50;4.20;;;19.50;99.90;;;;;;4992787;28;20239;-78
2023/09/18 11:44:40;;;;;;;4.90;4.47;;;19.50;99.90;;;;;;4992562;28;20208;-77
2023/09/18 11:47:12;;;;;;;4.97;4.47;;;19.50;99.90;;;;;;4994708;28;20201;-78
2023/09/18 11:49:42;;;;;;;6.60;4.80;;;19.50;99.90;;;;;;4990692;28;20213;-77
2023/09/18 11:52:10;;;;;;;5.30;4.80;;;19.50;99.90;;;;;;4995634;28;20192;-78
2023/09/18 11:54:40;;;;;;;5.20;4.80;;;19.40;99.90;;;;;;4991650;28;20284;-79
2023/09/18 11:57:08;;;;;;;5.63;5.17;;;19.50;99.90;;;;;;4996184;28;20212;-79
2023/09/18 11:59:42;;;;;;;5.90;5.30;;;19.50;99.90;;;;;;4985464;28;20218;-78
2023/09/18 12:02:10;;;;;;;5.73;5.23;;;19.60;99.90;;;;;;4989961;28;20220;-78
2023/09/18 12:04:37;;;;;;;5.07;4.67;;;19.70;99.90;;;;;;4992874;28;20204;-78
2023/09/18 12:07:05;;;;;;;5.73;5.20;;;19.70;99.90;;;;;;4985235;28;20201;-78
2023/09/18 12:09:32;;;;;;;5.50;5.00;;;19.70;99.90;;;;;;4987268;28;20212;-78
2023/09/18 12:12:03;;;;;;;4.93;4.50;;;19.80;99.90;;;;;;4990084;28;20202;-78
2023/09/18 12:14:32;;;;;;;5.40;4.90;;;19.80;99.90;;;;;;4995591;28;20205;-79
2023/09/18 12:17:02;;;;;;;4.70;4.40;;;19.70;99.90;;;;;;4993401;28;20193;-77
2023/09/18 12:19:29;;;;;;;5.53;4.70;;;19.70;99.90;;;;;;4996180;28;20232;-78
2023/09/18 12:21:56;;;;;;;4.80;4.40;;;19.70;99.90;;;;;;4989914;28;20703;-77
2023/09/18 12:24:23;;;;;;;4.90;4.60;;;19.80;99.90;;;;;;4988671;28;20660;-78
2023/09/18 12:26:52;;;;;;;4.97;4.53;;;20.00;99.90;;;;;;4980976;28;20265;-77
2023/09/18 12:29:19;;;;;;;6.33;5.93;;;20.10;99.90;;;;;;4988846;28;20217;-78
2023/09/18 12:31:47;;;;;;;6.77;6.33;;;20.30;99.90;;;;;;4984127;28;20198;-78
2023/09/18 12:34:21;;;;;;;3.47;2.73;;;20.60;99.90;;;;;;4975276;28;20237;-78
2023/09/18 12:36:48;;;;;;;3.13;2.63;;;21.00;99.90;;;;;;4976772;28;20285;-78
2023/09/18 12:39:16;;;;;;;8.27;7.70;;;21.30;99.90;;;;;;4975827;28;20243;-79
2023/09/18 12:41:44;;;;;;;8.50;7.90;;;21.50;99.90;;;;;;4976475;28;20705;-78
2023/09/18 12:44:11;;;;;;;8.27;7.77;;;21.60;99.90;;;;;;4975125;28;20665;-76
2023/09/18 12:46:40;;;;;;;8.10;7.50;;;21.70;99.90;;;;;;4979857;28;20216;-78
2023/09/18 12:49:23;;;;;;;8.50;7.90;;;21.80;99.90;;;;;;4975386;28;20308;-80
2023/09/18 12:51:57;;;;;;;9.10;8.13;;;21.80;99.90;;;;;;4975758;28;20201;-80
2023/09/18 12:54:40;;;;;;;6.73;6.27;;;21.80;99.90;;;;;;4975885;28;20200;-80